sensor_id;sensor_type;location;lat;lon;timestamp;temperature;humidity
51950;DHT22;37974;53.218;6.640;2024-02-16T00:01:22;10.80;99.90
51950;DHT22;37974;53.218;6.640;2024-02-16T00:03:48;10.80;99.90
51950;DHT22;37974;53.218;6.640;2024-02-16T00:06:14;10.70;99.90
51950;DHT22;37974;53.218;6.640;2024-02-16T00:08:39;10.70;99.90
51950;DHT22;37974;53.218;6.640;2024-02-16T00:11:05;10.80;99.90
51950;DHT22;37974;53.218;6.640;2024-02-16T00:13:31;10.70;99.90
51950;DHT22;37974;53.218;6.640;2024-02-16T00:15:57;10.80;99.90
51950;DHT22;37974;53.218;6.640;2024-02-16T00:18:23;10.70;99.90
51950;DHT22;37974;53.218;6.640;2024-02-16T00:20:49;10.70;99.90
51950;DHT22;37974;53.218;6.640;2024-02-16T00:23:15;10.70;99.90
51950;DHT22;37974;53.218;6.640;2024-02-16T00:25:41;10.70;99.90
51950;DHT22;37974;53.218;6.640;2024-02-16T00:28:08;10.70;99.90
51950;DHT22;37974;53.218;6.640;2024-02-16T00:30:34;10.60;99.90
51950;DHT22;37974;53.218;6.640;2024-02-16T00:33:01;10.60;99.90
51950;DHT22;37974;53.218;6.640;2024-02-16T00:35:27;10.70;99.90
51950;DHT22;37974;53.218;6.640;2024-02-16T00:37:52;10.60;99.90
51950;DHT22;37974;53.218;6.640;2024-02-16T00:40:18;10.70;99.90
51950;DHT22;37974;53.218;6.640;2024-02-16T00:42:44;10.70;99.90
51950;DHT22;37974;53.218;6.640;2024-02-16T00:45:10;10.70;99.90
51950;DHT22;37974;53.218;6.640;2024-02-16T00:47:35;10.70;99.90
51950;DHT22;37974;53.218;6.640;2024-02-16T00:50:01;10.70;99.90
51950;DHT22;37974;53.218;6.640;2024-02-16T00:52:29;10.70;99.90
51950;DHT22;37974;53.218;6.640;2024-02-16T00:54:54;10.70;99.90
51950;DHT22;37974;53.218;6.640;2024-02-16T00:57:20;10.70;99.90
51950;DHT22;37974;53.218;6.640;2024-02-16T00:59:46;10.70;99.90
51950;DHT22;37974;53.218;6.640;2024-02-16T01:02:13;10.70;99.90
51950;DHT22;37974;53.218;6.640;2024-02-16T01:04:38;10.70;99.90
51950;DHT22;37974;53.218;6.640;2024-02-16T01:07:04;10.70;99.90
51950;DHT22;37974;53.218;6.640;2024-02-16T01:09:30;10.70;99.90
51950;DHT22;37974;53.218;6.640;2024-02-16T01:11:57;10.60;99.90
51950;DHT22;37974;53.218;6.640;2024-02-16T01:14:23;10.70;99.90
51950;DHT22;37974;53.218;6.640;2024-02-16T01:16:48;10.60;99.90
51950;DHT22;37974;53.218;6.640;2024-02-16T01:19:14;10.60;99.90
51950;DHT22;37974;53.218;6.640;2024-02-16T01:21:40;10.60;99.90
51950;DHT22;37974;53.218;6.640;2024-02-16T01:24:08;10.60;99.90
51950;DHT22;37974;53.218;6.640;2024-02-16T01:26:34;10.60;99.90
51950;DHT22;37974;53.218;6.640;2024-02-16T01:29:00;10.60;99.90
51950;DHT22;37974;53.218;6.640;2024-02-16T01:31:27;10.50;99.90
51950;DHT22;37974;53.218;6.640;2024-02-16T01:33:53;10.60;99.90
51950;DHT22;37974;53.218;6.640;2024-02-16T01:36:19;10.60;99.90
51950;DHT22;37974;53.218;6.640;2024-02-16T01:38:44;10.50;99.90
51950;DHT22;37974;53.218;6.640;2024-02-16T01:41:10;10.50;99.90
51950;DHT22;37974;53.218;6.640;2024-02-16T01:43:36;10.40;99.90
51950;DHT22;37974;53.218;6.640;2024-02-16T01:46:05;10.40;99.90
51950;DHT22;37974;53.218;6.640;2024-02-16T01:48:31;10.40;99.90
51950;DHT22;37974;53.218;6.640;2024-02-16T01:50:57;10.50;99.90
51950;DHT22;37974;53.218;6.640;2024-02-16T01:53:24;10.40;99.90
51950;DHT22;37974;53.218;6.640;2024-02-16T01:55:50;10.40;99.90
51950;DHT22;37974;53.218;6.640;2024-02-16T01:58:16;10.30;99.90
51950;DHT22;37974;53.218;6.640;2024-02-16T02:00:42;10.40;99.90
51950;DHT22;37974;53.218;6.640;2024-02-16T02:03:10;10.30;99.90
51950;DHT22;37974;53.218;6.640;2024-02-16T02:05:48;10.40;99.90
51950;DHT22;37974;53.218;6.640;2024-02-16T02:08:15;10.30;99.90
51950;DHT22;37974;53.218;6.640;2024-02-16T02:10:42;10.30;99.90
51950;DHT22;37974;53.218;6.640;2024-02-16T02:13:08;10.30;99.90
51950;DHT22;37974;53.218;6.640;2024-02-16T02:15:35;10.30;99.90
51950;DHT22;37974;53.218;6.640;2024-02-16T02:18:01;10.30;99.90
51950;DHT22;37974;53.218;6.640;2024-02-16T02:20:27;10.30;99.90
51950;DHT22;37974;53.218;6.640;2024-02-16T02:22:53;10.30;99.90
51950;DHT22;37974;53.218;6.640;2024-02-16T02:25:18;10.40;99.90
51950;DHT22;37974;53.218;6.640;2024-02-16T02:27:45;10.30;99.90
51950;DHT22;37974;53.218;6.640;2024-02-16T02:30:11;10.30;99.90
51950;DHT22;37974;53.218;6.640;2024-02-16T02:32:37;10.30;99.90
51950;DHT22;37974;53.218;6.640;2024-02-16T02:35:02;10.30;99.90
51950;DHT22;37974;53.218;6.640;2024-02-16T02:37:29;10.30;99.90
51950;DHT22;37974;53.218;6.640;2024-02-16T02:39:55;10.20;99.90
51950;DHT22;37974;53.218;6.640;2024-02-16T02:42:22;10.30;99.90
51950;DHT22;37974;53.218;6.640;2024-02-16T02:44:48;10.30;99.90
51950;DHT22;37974;53.218;6.640;2024-02-16T02:47:16;10.20;99.90
51950;DHT22;37974;53.218;6.640;2024-02-16T02:49:43;10.20;99.90
51950;DHT22;37974;53.218;6.640;2024-02-16T02:52:09;10.20;99.90
51950;DHT22;37974;53.218;6.640;2024-02-16T02:54:34;10.20;99.90
51950;DHT22;37974;53.218;6.640;2024-02-16T02:57:02;10.20;99.90
51950;DHT22;37974;53.218;6.640;2024-02-16T02:59:28;10.20;99.90
51950;DHT22;37974;53.218;6.640;2024-02-16T03:01:53;10.20;99.90
51950;DHT22;37974;53.218;6.640;2024-02-16T03:04:19;10.20;99.90
51950;DHT22;37974;53.218;6.640;2024-02-16T03:06:46;10.10;99.90
51950;DHT22;37974;53.218;6.640;2024-02-16T03:09:12;10.10;99.90
51950;DHT22;37974;53.218;6.640;2024-02-16T03:11:38;10.00;99.90
51950;DHT22;37974;53.218;6.640;2024-02-16T03:14:05;10.10;99.90
51950;DHT22;37974;53.218;6.640;2024-02-16T03:16:31;10.00;99.90
51950;DHT22;37974;53.218;6.640;2024-02-16T03:18:57;10.10;99.90
51950;DHT22;37974;53.218;6.640;2024-02-16T03:21:23;10.00;99.90
51950;DHT22;37974;53.218;6.640;2024-02-16T03:23:49;10.10;99.90
51950;DHT22;37974;53.218;6.640;2024-02-16T03:26:16;10.00;99.90
51950;DHT22;37974;53.218;6.640;2024-02-16T03:28:44;10.10;99.90
51950;DHT22;37974;53.218;6.640;2024-02-16T03:33:44;10.10;99.90
51950;DHT22;37974;53.218;6.640;2024-02-16T03:36:10;10.00;99.90
51950;DHT22;37974;53.218;6.640;2024-02-16T03:38:38;10.00;99.90
51950;DHT22;37974;53.218;6.640;2024-02-16T03:41:03;10.00;99.90
51950;DHT22;37974;53.218;6.640;2024-02-16T03:43:29;10.00;99.90
51950;DHT22;37974;53.218;6.640;2024-02-16T03:45:55;10.00;99.90
51950;DHT22;37974;53.218;6.640;2024-02-16T03:48:21;10.00;99.90
51950;DHT22;37974;53.218;6.640;2024-02-16T03:50:47;10.00;99.90
51950;DHT22;37974;53.218;6.640;2024-02-16T03:53:12;10.00;99.90
51950;DHT22;37974;53.218;6.640;2024-02-16T03:55:38;10.00;99.90
51950;DHT22;37974;53.218;6.640;2024-02-16T03:58:04;10.00;99.90
51950;DHT22;37974;53.218;6.640;2024-02-16T04:00:30;10.10;99.90
51950;DHT22;37974;53.218;6.640;2024-02-16T04:02:57;10.00;99.90
51950;DHT22;37974;53.218;6.640;2024-02-16T04:05:23;10.00;99.90
51950;DHT22;37974;53.218;6.640;2024-02-16T04:07:49;9.90;99.90
51950;DHT22;37974;53.218;6.640;2024-02-16T04:10:14;10.00;99.90
51950;DHT22;37974;53.218;6.640;2024-02-16T04:12:40;9.90;99.90
51950;DHT22;37974;53.218;6.640;2024-02-16T04:15:06;9.90;99.90
51950;DHT22;37974;53.218;6.640;2024-02-16T04:17:32;9.80;99.90
51950;DHT22;37974;53.218;6.640;2024-02-16T04:19:58;9.80;99.90
51950;DHT22;37974;53.218;6.640;2024-02-16T04:22:23;9.80;99.90
51950;DHT22;37974;53.218;6.640;2024-02-16T04:24:49;9.70;99.90
51950;DHT22;37974;53.218;6.640;2024-02-16T04:27:15;9.80;99.90
51950;DHT22;37974;53.218;6.640;2024-02-16T04:29:40;9.80;99.90
51950;DHT22;37974;53.218;6.640;2024-02-16T04:32:06;9.70;99.90
51950;DHT22;37974;53.218;6.640;2024-02-16T04:34:33;9.80;99.90
51950;DHT22;37974;53.218;6.640;2024-02-16T04:36:58;9.70;99.90
51950;DHT22;37974;53.218;6.640;2024-02-16T04:39:24;9.80;99.90
51950;DHT22;37974;53.218;6.640;2024-02-16T04:41:50;9.70;99.90
51950;DHT22;37974;53.218;6.640;2024-02-16T04:44:17;9.80;99.90
51950;DHT22;37974;53.218;6.640;2024-02-16T04:46:43;9.80;99.90
51950;DHT22;37974;53.218;6.640;2024-02-16T04:49:08;9.80;99.90
51950;DHT22;37974;53.218;6.640;2024-02-16T04:51:34;9.70;99.90
51950;DHT22;37974;53.218;6.640;2024-02-16T04:54:00;9.80;99.90
51950;DHT22;37974;53.218;6.640;2024-02-16T04:56:25;9.80;99.90
51950;DHT22;37974;53.218;6.640;2024-02-16T04:58:51;9.80;99.90
51950;DHT22;37974;53.218;6.640;2024-02-16T05:01:17;9.90;99.90
51950;DHT22;37974;53.218;6.640;2024-02-16T05:03:43;9.80;99.90
51950;DHT22;37974;53.218;6.640;2024-02-16T05:06:09;9.80;99.90
51950;DHT22;37974;53.218;6.640;2024-02-16T05:08:34;9.80;99.90
51950;DHT22;37974;53.218;6.640;2024-02-16T05:11:00;9.80;99.90
51950;DHT22;37974;53.218;6.640;2024-02-16T05:13:27;9.80;99.90
51950;DHT22;37974;53.218;6.640;2024-02-16T05:15:53;9.80;99.90
51950;DHT22;37974;53.218;6.640;2024-02-16T05:18:22;9.80;99.90
51950;DHT22;37974;53.218;6.640;2024-02-16T05:20:48;9.80;99.90
51950;DHT22;37974;53.218;6.640;2024-02-16T05:23:13;9.80;99.90
51950;DHT22;37974;53.218;6.640;2024-02-16T05:25:39;9.80;99.90
51950;DHT22;37974;53.218;6.640;2024-02-16T05:28:05;9.90;99.90
51950;DHT22;37974;53.218;6.640;2024-02-16T05:30:31;9.80;99.90
51950;DHT22;37974;53.218;6.640;2024-02-16T05:32:57;9.90;99.90
51950;DHT22;37974;53.218;6.640;2024-02-16T05:35:24;9.90;99.90
51950;DHT22;37974;53.218;6.640;2024-02-16T05:37:53;9.90;99.90
51950;DHT22;37974;53.218;6.640;2024-02-16T05:40:20;9.90;99.90
51950;DHT22;37974;53.218;6.640;2024-02-16T05:42:50;9.90;99.90
51950;DHT22;37974;53.218;6.640;2024-02-16T05:45:17;9.90;99.90
51950;DHT22;37974;53.218;6.640;2024-02-16T05:47:44;9.90;99.90
51950;DHT22;37974;53.218;6.640;2024-02-16T05:50:13;10.00;99.90
51950;DHT22;37974;53.218;6.640;2024-02-16T05:52:39;9.90;99.90
51950;DHT22;37974;53.218;6.640;2024-02-16T05:55:06;9.90;99.90
51950;DHT22;37974;53.218;6.640;2024-02-16T05:57:32;9.90;99.90
51950;DHT22;37974;53.218;6.640;2024-02-16T05:59:58;9.80;99.90
51950;DHT22;37974;53.218;6.640;2024-02-16T06:02:24;9.80;99.90
51950;DHT22;37974;53.218;6.640;2024-02-16T06:04:52;9.80;99.90
51950;DHT22;37974;53.218;6.640;2024-02-16T06:07:17;9.80;99.90
51950;DHT22;37974;53.218;6.640;2024-02-16T06:09:43;9.80;99.90
51950;DHT22;37974;53.218;6.640;2024-02-16T06:12:09;9.70;99.90
51950;DHT22;37974;53.218;6.640;2024-02-16T06:14:35;9.80;99.90
51950;DHT22;37974;53.218;6.640;2024-02-16T06:17:02;9.80;99.90
51950;DHT22;37974;53.218;6.640;2024-02-16T06:19:28;9.70;99.90
51950;DHT22;37974;53.218;6.640;2024-02-16T06:21:54;9.80;99.90
51950;DHT22;37974;53.218;6.640;2024-02-16T06:24:21;9.80;99.90
51950;DHT22;37974;53.218;6.640;2024-02-16T06:26:48;9.80;99.90
51950;DHT22;37974;53.218;6.640;2024-02-16T06:29:14;9.70;99.90
51950;DHT22;37974;53.218;6.640;2024-02-16T06:31:39;9.70;99.90
51950;DHT22;37974;53.218;6.640;2024-02-16T06:34:05;9.70;99.90
51950;DHT22;37974;53.218;6.640;2024-02-16T06:36:31;9.70;99.90
51950;DHT22;37974;53.218;6.640;2024-02-16T06:38:56;9.70;99.90
51950;DHT22;37974;53.218;6.640;2024-02-16T06:41:22;9.60;99.90
51950;DHT22;37974;53.218;6.640;2024-02-16T06:43:49;9.70;99.90
51950;DHT22;37974;53.218;6.640;2024-02-16T06:46:14;9.60;99.90
51950;DHT22;37974;53.218;6.640;2024-02-16T06:48:40;9.60;99.90
51950;DHT22;37974;53.218;6.640;2024-02-16T06:51:06;9.60;99.90
51950;DHT22;37974;53.218;6.640;2024-02-16T06:53:32;9.60;99.90
51950;DHT22;37974;53.218;6.640;2024-02-16T06:55:58;9.60;99.90
51950;DHT22;37974;53.218;6.640;2024-02-16T06:58:24;9.60;99.90
51950;DHT22;37974;53.218;6.640;2024-02-16T07:00:50;9.60;99.90
51950;DHT22;37974;53.218;6.640;2024-02-16T07:03:15;9.70;99.90
51950;DHT22;37974;53.218;6.640;2024-02-16T07:05:41;9.70;99.90
51950;DHT22;37974;53.218;6.640;2024-02-16T07:08:07;9.70;99.90
51950;DHT22;37974;53.218;6.640;2024-02-16T07:10:33;9.80;99.90
51950;DHT22;37974;53.218;6.640;2024-02-16T07:13:00;9.80;99.90
51950;DHT22;37974;53.218;6.640;2024-02-16T07:15:25;9.90;99.90
51950;DHT22;37974;53.218;6.640;2024-02-16T07:17:53;9.90;99.90
51950;DHT22;37974;53.218;6.640;2024-02-16T07:20:19;10.00;99.90
51950;DHT22;37974;53.218;6.640;2024-02-16T07:22:45;10.10;99.90
51950;DHT22;37974;53.218;6.640;2024-02-16T07:25:12;10.10;99.90
51950;DHT22;37974;53.218;6.640;2024-02-16T07:27:38;10.20;99.90
51950;DHT22;37974;53.218;6.640;2024-02-16T07:30:05;10.20;99.90
51950;DHT22;37974;53.218;6.640;2024-02-16T07:32:30;10.20;99.90
51950;DHT22;37974;53.218;6.640;2024-02-16T07:34:56;10.30;99.90
51950;DHT22;37974;53.218;6.640;2024-02-16T07:37:22;10.30;99.90
51950;DHT22;37974;53.218;6.640;2024-02-16T07:39:48;10.30;99.90
51950;DHT22;37974;53.218;6.640;2024-02-16T07:42:13;10.30;99.90
51950;DHT22;37974;53.218;6.640;2024-02-16T07:44:39;10.40;99.90
51950;DHT22;37974;53.218;6.640;2024-02-16T07:47:05;10.40;99.90
51950;DHT22;37974;53.218;6.640;2024-02-16T07:49:31;10.50;99.90
51950;DHT22;37974;53.218;6.640;2024-02-16T07:51:57;10.50;99.90
51950;DHT22;37974;53.218;6.640;2024-02-16T07:54:23;10.50;99.90
51950;DHT22;37974;53.218;6.640;2024-02-16T07:56:49;10.50;99.90
51950;DHT22;37974;53.218;6.640;2024-02-16T07:59:15;10.60;99.90
51950;DHT22;37974;53.218;6.640;2024-02-16T08:01:41;10.60;99.90
51950;DHT22;37974;53.218;6.640;2024-02-16T08:04:10;10.60;99.90
51950;DHT22;37974;53.218;6.640;2024-02-16T08:06:35;10.70;99.90
51950;DHT22;37974;53.218;6.640;2024-02-16T08:09:01;10.70;99.90
51950;DHT22;37974;53.218;6.640;2024-02-16T08:11:27;10.70;99.90
51950;DHT22;37974;53.218;6.640;2024-02-16T08:13:53;10.70;99.90
51950;DHT22;37974;53.218;6.640;2024-02-16T08:16:18;10.80;99.90
51950;DHT22;37974;53.218;6.640;2024-02-16T08:18:44;10.80;99.90
51950;DHT22;37974;53.218;6.640;2024-02-16T08:21:11;10.80;99.90
51950;DHT22;37974;53.218;6.640;2024-02-16T08:23:36;10.90;99.90
51950;DHT22;37974;53.218;6.640;2024-02-16T08:26:03;10.90;99.90
51950;DHT22;37974;53.218;6.640;2024-02-16T08:28:29;10.90;99.90
51950;DHT22;37974;53.218;6.640;2024-02-16T08:30:55;10.90;99.90
51950;DHT22;37974;53.218;6.640;2024-02-16T08:33:21;10.90;99.90
51950;DHT22;37974;53.218;6.640;2024-02-16T08:35:47;11.00;99.90
51950;DHT22;37974;53.218;6.640;2024-02-16T08:38:12;11.00;99.90
51950;DHT22;37974;53.218;6.640;2024-02-16T08:40:40;11.00;99.90
51950;DHT22;37974;53.218;6.640;2024-02-16T08:43:06;11.00;99.90
51950;DHT22;37974;53.218;6.640;2024-02-16T08:45:33;11.00;99.90
51950;DHT22;37974;53.218;6.640;2024-02-16T08:48:02;11.00;99.90
51950;DHT22;37974;53.218;6.640;2024-02-16T08:50:29;11.40;99.90
51950;DHT22;37974;53.218;6.640;2024-02-16T08:52:55;11.00;99.90
51950;DHT22;37974;53.218;6.640;2024-02-16T08:55:21;11.00;99.90
51950;DHT22;37974;53.218;6.640;2024-02-16T08:57:47;11.00;99.90
51950;DHT22;37974;53.218;6.640;2024-02-16T09:00:13;11.10;99.90
51950;DHT22;37974;53.218;6.640;2024-02-16T09:02:40;11.10;99.90
51950;DHT22;37974;53.218;6.640;2024-02-16T09:05:06;11.10;99.90
51950;DHT22;37974;53.218;6.640;2024-02-16T09:07:35;11.10;99.90
51950;DHT22;37974;53.218;6.640;2024-02-16T09:10:01;11.10;99.90
51950;DHT22;37974;53.218;6.640;2024-02-16T09:12:27;11.20;99.90
51950;DHT22;37974;53.218;6.640;2024-02-16T09:14:53;11.20;99.90
51950;DHT22;37974;53.218;6.640;2024-02-16T09:17:18;11.10;99.90
51950;DHT22;37974;53.218;6.640;2024-02-16T09:19:46;11.20;99.90
51950;DHT22;37974;53.218;6.640;2024-02-16T09:22:11;11.30;99.90
51950;DHT22;37974;53.218;6.640;2024-02-16T09:24:37;11.30;99.90
51950;DHT22;37974;53.218;6.640;2024-02-16T09:27:03;11.30;99.90
51950;DHT22;37974;53.218;6.640;2024-02-16T09:29:30;11.40;99.90
51950;DHT22;37974;53.218;6.640;2024-02-16T09:31:56;11.40;99.90
51950;DHT22;37974;53.218;6.640;2024-02-16T09:34:22;11.50;99.90
51950;DHT22;37974;53.218;6.640;2024-02-16T09:36:47;11.60;99.90
51950;DHT22;37974;53.218;6.640;2024-02-16T09:39:13;11.70;99.90
51950;DHT22;37974;53.218;6.640;2024-02-16T09:41:41;11.70;99.90
51950;DHT22;37974;53.218;6.640;2024-02-16T09:44:07;11.80;99.90
51950;DHT22;37974;53.218;6.640;2024-02-16T09:46:35;11.90;99.90
51950;DHT22;37974;53.218;6.640;2024-02-16T09:49:01;12.00;99.90
51950;DHT22;37974;53.218;6.640;2024-02-16T09:51:29;12.00;99.90
51950;DHT22;37974;53.218;6.640;2024-02-16T09:53:55;12.10;99.90
51950;DHT22;37974;53.218;6.640;2024-02-16T09:56:21;12.20;99.90
51950;DHT22;37974;53.218;6.640;2024-02-16T09:58:47;12.20;99.90
51950;DHT22;37974;53.218;6.640;2024-02-16T10:01:18;12.30;99.90
51950;DHT22;37974;53.218;6.640;2024-02-16T10:03:46;12.40;99.90
51950;DHT22;37974;53.218;6.640;2024-02-16T10:06:11;12.50;99.90
51950;DHT22;37974;53.218;6.640;2024-02-16T10:08:49;12.50;99.90
51950;DHT22;37974;53.218;6.640;2024-02-16T10:11:16;12.50;99.90
51950;DHT22;37974;53.218;6.640;2024-02-16T10:13:54;12.60;99.90
51950;DHT22;37974;53.218;6.640;2024-02-16T10:16:20;12.70;99.90
51950;DHT22;37974;53.218;6.640;2024-02-16T10:18:46;12.70;99.90
51950;DHT22;37974;53.218;6.640;2024-02-16T10:21:12;12.80;99.90
51950;DHT22;37974;53.218;6.640;2024-02-16T10:23:38;12.80;99.90
51950;DHT22;37974;53.218;6.640;2024-02-16T10:26:04;12.80;99.90
51950;DHT22;37974;53.218;6.640;2024-02-16T10:28:30;12.90;99.90
51950;DHT22;37974;53.218;6.640;2024-02-16T10:30:59;13.00;99.90
51950;DHT22;37974;53.218;6.640;2024-02-16T10:33:27;13.10;99.90
51950;DHT22;37974;53.218;6.640;2024-02-16T10:35:56;13.10;99.90
51950;DHT22;37974;53.218;6.640;2024-02-16T10:38:23;13.20;99.90
51950;DHT22;37974;53.218;6.640;2024-02-16T10:40:51;13.10;99.90
51950;DHT22;37974;53.218;6.640;2024-02-16T10:43:18;13.20;99.90
51950;DHT22;37974;53.218;6.640;2024-02-16T10:45:44;13.10;99.90
51950;DHT22;37974;53.218;6.640;2024-02-16T10:48:12;13.00;99.90
51950;DHT22;37974;53.218;6.640;2024-02-16T10:50:41;13.00;99.90
51950;DHT22;37974;53.218;6.640;2024-02-16T10:53:12;13.00;99.90
51950;DHT22;37974;53.218;6.640;2024-02-16T10:55:39;13.00;99.90
51950;DHT22;37974;53.218;6.640;2024-02-16T10:58:07;13.00;99.90
51950;DHT22;37974;53.218;6.640;2024-02-16T11:00:34;12.90;99.90
51950;DHT22;37974;53.218;6.640;2024-02-16T11:03:02;12.80;99.90
51950;DHT22;37974;53.218;6.640;2024-02-16T11:05:33;12.70;99.90
51950;DHT22;37974;53.218;6.640;2024-02-16T11:08:03;12.60;99.90
51950;DHT22;37974;53.218;6.640;2024-02-16T11:10:29;12.50;99.90
51950;DHT22;37974;53.218;6.640;2024-02-16T11:13:01;12.50;99.90
51950;DHT22;37974;53.218;6.640;2024-02-16T11:15:30;12.40;99.90
51950;DHT22;37974;53.218;6.640;2024-02-16T11:17:57;12.30;99.90
51950;DHT22;37974;53.218;6.640;2024-02-16T11:20:25;12.20;99.90
51950;DHT22;37974;53.218;6.640;2024-02-16T11:22:52;12.10;99.90
51950;DHT22;37974;53.218;6.640;2024-02-16T11:25:18;12.20;99.90
51950;DHT22;37974;53.218;6.640;2024-02-16T11:27:45;12.10;99.90
51950;DHT22;37974;53.218;6.640;2024-02-16T11:30:11;12.00;99.90
51950;DHT22;37974;53.218;6.640;2024-02-16T11:32:42;12.00;99.90
51950;DHT22;37974;53.218;6.640;2024-02-16T11:35:09;11.90;99.90
51950;DHT22;37974;53.218;6.640;2024-02-16T11:37:37;11.70;99.90
51950;DHT22;37974;53.218;6.640;2024-02-16T11:40:04;11.60;99.90
51950;DHT22;37974;53.218;6.640;2024-02-16T11:42:30;11.50;99.90
51950;DHT22;37974;53.218;6.640;2024-02-16T11:44:56;11.40;99.90
51950;DHT22;37974;53.218;6.640;2024-02-16T11:47:23;11.30;99.90
51950;DHT22;37974;53.218;6.640;2024-02-16T11:50:03;11.20;99.90
51950;DHT22;37974;53.218;6.640;2024-02-16T11:52:29;11.20;99.90
51950;DHT22;37974;53.218;6.640;2024-02-16T11:54:55;11.10;99.90
51950;DHT22;37974;53.218;6.640;2024-02-16T11:57:23;11.10;99.90
51950;DHT22;37974;53.218;6.640;2024-02-16T11:59:49;11.10;99.90
51950;DHT22;37974;53.218;6.640;2024-02-16T12:02:19;11.00;99.90
51950;DHT22;37974;53.218;6.640;2024-02-16T12:04:46;11.00;99.90
51950;DHT22;37974;53.218;6.640;2024-02-16T12:07:13;10.90;99.90
51950;DHT22;37974;53.218;6.640;2024-02-16T12:09:40;10.90;99.90
51950;DHT22;37974;53.218;6.640;2024-02-16T12:12:06;10.90;99.90
51950;DHT22;37974;53.218;6.640;2024-02-16T12:14:32;10.90;99.90
51950;DHT22;37974;53.218;6.640;2024-02-16T12:16:58;10.90;99.90
51950;DHT22;37974;53.218;6.640;2024-02-16T12:19:25;10.90;99.90
51950;DHT22;37974;53.218;6.640;2024-02-16T12:21:52;10.90;99.90
51950;DHT22;37974;53.218;6.640;2024-02-16T12:24:19;10.90;99.90
51950;DHT22;37974;53.218;6.640;2024-02-16T12:26:45;10.90;99.90
51950;DHT22;37974;53.218;6.640;2024-02-16T12:29:12;11.00;99.90
51950;DHT22;37974;53.218;6.640;2024-02-16T12:31:40;11.00;99.90
51950;DHT22;37974;53.218;6.640;2024-02-16T12:34:07;11.00;99.90
51950;DHT22;37974;53.218;6.640;2024-02-16T12:36:34;10.90;99.90
51950;DHT22;37974;53.218;6.640;2024-02-16T12:39:00;10.90;99.90
51950;DHT22;37974;53.218;6.640;2024-02-16T12:41:26;11.00;99.90
51950;DHT22;37974;53.218;6.640;2024-02-16T12:43:52;11.10;99.90
51950;DHT22;37974;53.218;6.640;2024-02-16T12:46:19;11.10;99.90
51950;DHT22;37974;53.218;6.640;2024-02-16T12:48:45;11.10;99.90
51950;DHT22;37974;53.218;6.640;2024-02-16T12:51:11;11.10;99.90
51950;DHT22;37974;53.218;6.640;2024-02-16T12:53:37;11.10;99.90
51950;DHT22;37974;53.218;6.640;2024-02-16T12:56:07;11.10;99.90
51950;DHT22;37974;53.218;6.640;2024-02-16T12:58:34;11.10;99.90
51950;DHT22;37974;53.218;6.640;2024-02-16T13:01:00;11.10;99.90
51950;DHT22;37974;53.218;6.640;2024-02-16T13:03:26;11.10;99.90
51950;DHT22;37974;53.218;6.640;2024-02-16T13:05:51;11.00;99.90
51950;DHT22;37974;53.218;6.640;2024-02-16T13:08:17;11.00;99.90
51950;DHT22;37974;53.218;6.640;2024-02-16T13:10:43;11.00;99.90
51950;DHT22;37974;53.218;6.640;2024-02-16T13:13:09;11.10;99.90
51950;DHT22;37974;53.218;6.640;2024-02-16T13:15:35;11.00;99.90
51950;DHT22;37974;53.218;6.640;2024-02-16T13:18:00;11.10;99.90
51950;DHT22;37974;53.218;6.640;2024-02-16T13:20:27;11.00;99.90
51950;DHT22;37974;53.218;6.640;2024-02-16T13:22:52;10.90;99.90
51950;DHT22;37974;53.218;6.640;2024-02-16T13:25:19;11.00;99.90
51950;DHT22;37974;53.218;6.640;2024-02-16T13:27:45;10.90;99.90
51950;DHT22;37974;53.218;6.640;2024-02-16T13:30:11;11.00;99.90
51950;DHT22;37974;53.218;6.640;2024-02-16T13:32:37;10.90;99.90
51950;DHT22;37974;53.218;6.640;2024-02-16T13:35:06;10.90;99.90
51950;DHT22;37974;53.218;6.640;2024-02-16T13:37:32;11.00;99.90
51950;DHT22;37974;53.218;6.640;2024-02-16T13:39:58;11.00;99.90
51950;DHT22;37974;53.218;6.640;2024-02-16T13:42:24;10.90;99.90
51950;DHT22;37974;53.218;6.640;2024-02-16T13:44:51;11.00;99.90
51950;DHT22;37974;53.218;6.640;2024-02-16T13:47:17;10.90;99.90
51950;DHT22;37974;53.218;6.640;2024-02-16T13:49:43;10.90;99.90
51950;DHT22;37974;53.218;6.640;2024-02-16T13:52:09;10.80;99.90
51950;DHT22;37974;53.218;6.640;2024-02-16T13:54:35;10.80;99.90
51950;DHT22;37974;53.218;6.640;2024-02-16T13:57:01;10.80;99.90
51950;DHT22;37974;53.218;6.640;2024-02-16T13:59:27;10.90;99.90
51950;DHT22;37974;53.218;6.640;2024-02-16T14:01:53;10.90;99.90
51950;DHT22;37974;53.218;6.640;2024-02-16T14:04:19;10.90;99.90
51950;DHT22;37974;53.218;6.640;2024-02-16T14:06:45;10.90;99.90
51950;DHT22;37974;53.218;6.640;2024-02-16T14:09:11;10.90;99.90
51950;DHT22;37974;53.218;6.640;2024-02-16T14:11:40;10.80;99.90
51950;DHT22;37974;53.218;6.640;2024-02-16T14:14:07;10.80;99.90
51950;DHT22;37974;53.218;6.640;2024-02-16T14:16:33;10.80;99.90
51950;DHT22;37974;53.218;6.640;2024-02-16T14:18:59;10.70;99.90
51950;DHT22;37974;53.218;6.640;2024-02-16T14:21:25;10.80;99.90
51950;DHT22;37974;53.218;6.640;2024-02-16T14:23:51;10.80;99.90
51950;DHT22;37974;53.218;6.640;2024-02-16T14:26:17;10.70;99.90
51950;DHT22;37974;53.218;6.640;2024-02-16T14:28:46;10.70;99.90
51950;DHT22;37974;53.218;6.640;2024-02-16T14:31:11;10.80;99.90
51950;DHT22;37974;53.218;6.640;2024-02-16T14:33:39;10.80;99.90
51950;DHT22;37974;53.218;6.640;2024-02-16T14:36:05;10.80;99.90
51950;DHT22;37974;53.218;6.640;2024-02-16T14:38:35;10.80;99.90
51950;DHT22;37974;53.218;6.640;2024-02-16T14:41:00;10.70;99.90
51950;DHT22;37974;53.218;6.640;2024-02-16T14:43:29;10.70;99.90
51950;DHT22;37974;53.218;6.640;2024-02-16T14:45:59;10.70;99.90
51950;DHT22;37974;53.218;6.640;2024-02-16T14:48:25;10.80;99.90
51950;DHT22;37974;53.218;6.640;2024-02-16T14:50:52;10.80;99.90
51950;DHT22;37974;53.218;6.640;2024-02-16T14:53:19;10.90;99.90
51950;DHT22;37974;53.218;6.640;2024-02-16T14:55:46;11.00;99.90
51950;DHT22;37974;53.218;6.640;2024-02-16T14:58:12;11.00;99.90
51950;DHT22;37974;53.218;6.640;2024-02-16T15:00:38;11.00;99.90
51950;DHT22;37974;53.218;6.640;2024-02-16T15:03:04;11.10;99.90
51950;DHT22;37974;53.218;6.640;2024-02-16T15:05:30;11.00;99.90
51950;DHT22;37974;53.218;6.640;2024-02-16T15:07:56;11.00;99.90
51950;DHT22;37974;53.218;6.640;2024-02-16T15:10:22;11.00;99.90
51950;DHT22;37974;53.218;6.640;2024-02-16T15:12:48;11.00;99.90
51950;DHT22;37974;53.218;6.640;2024-02-16T15:15:14;11.00;99.90
51950;DHT22;37974;53.218;6.640;2024-02-16T15:17:40;11.10;99.90
51950;DHT22;37974;53.218;6.640;2024-02-16T15:20:07;11.00;99.90
51950;DHT22;37974;53.218;6.640;2024-02-16T15:22:33;11.10;99.90
51950;DHT22;37974;53.218;6.640;2024-02-16T15:24:59;11.10;99.90
51950;DHT22;37974;53.218;6.640;2024-02-16T15:27:25;11.10;99.90
51950;DHT22;37974;53.218;6.640;2024-02-16T15:29:52;11.10;99.90
51950;DHT22;37974;53.218;6.640;2024-02-16T15:32:17;11.20;99.90